Aérodrome :
LOGIN :

S'inscrire | Disclaimer

   EN    FR    IT 

 










Légende :    VFR   VFR Marginal   IFR   IFR Intensif   IFR Très Intensif
Visi : 
Plafond : 
>= 8 km
>= 3000ft
5 à 8 km
1000 à 3000 ft
1500m à 5 km
500 à 1000 ft
800 à 1500m
200 à 500 ft
< 800m
< 200 ft
Symboles :   Orages  Brouillard  Fortes neiges  Fortes précipitations  Vent > 20 kt
SIGMETs :   Divers  Orages  Givrage  Turbulence  Onde Orograph.  Cendres Volcan.







- Altitude de l'aérodrome : 392 ft
- Code IATA : CDG
- Voir les cartes d'approche


LFPG - Paris-Aeroport Charles De Gaulle

DERNIER METAR :
  • 181800Z 34007KT 9999 FEW023 BKN036 05/04 Q1029 NOSIG

METARs EXPIRÉS :
  • 181730Z 33006KT 9999 FEW023 SCT036 05/03 Q1029 NOSIG
  • 181700Z 35006KT 9999 FEW020 06/04 Q1029 NOSIG
  • 181630Z 36006KT 9999 SCT036 07/04 Q1028 NOSIG
  • 181600Z 01007KT 9999 BKN036 07/04 Q1028 NOSIG
  • 181530Z 36008KT 9999 SCT020 BKN033 07/04 Q1028 NOSIG

TAF TAF LFPG
Valide du 18 à 18h jusqu'au 20 à 00h UTC


181700Z 1818/1924 35008KT 9999 FEW030
BECMG 1821/1823 3000 BR
BECMG 1823/1901 0800 FG BKN002
PROB40
TEMPO 1903/1911 0400 FG VV///
BECMG 1911/1913 4500 BR BKN004
PROB40
TEMPO 1913/1920 8000 NSW BKN006 TX05/1818Z TN02/1906Z
ATIS : +33 1 48 62 10 92
Pas de NOTAMs connus pour ce terrain.



MET'MAP, la Météo Aéronautique d'un coup d'oeil ! - Copyright ORBIFLY Décembre 2007 - Disclaimer

ORBIFLY MET'MAP TEAM :

Programmation & Développement : Alexandra Zaïnal
Conception & Développement : Baudouin d'Aumeries
Co-Programmation & Développement : Marc-Olivier Méhu
Soutien technique & logistique : Manuel Goepfert

Contact : metmap@orbifly.com




SOURCES & CREDITS :

   NOAA